Terminal Aerodrome Forecast
Issued by NWS Kansas City/Pleasant Hill, MO

Home | Current Version | Previous Version | Text Only | Print | Product List | Glossary On
Versions: 1 2 3 4 5 6 7 8 9 10 11 12
731
FTUS43 KEAX 210521
TAFMCI
TAF
KMCI 210521Z 2106/2206 21011KT P6SM SCT200
     FM211300 34015KT P6SM BKN120=

USA.gov is the U.S. government's official web portal to all federal, state and local government web resources and services.